sensor_id;sensor_type;location;lat;lon;timestamp;pressure;altitude;pressure_sealevel;temperature;humidity
37904;BME280;23738;50.422;18.758;2023-09-18T00:01:34;98635.71;;;17.10;80.52
37904;BME280;23738;50.422;18.758;2023-09-18T00:04:04;98634.51;;;17.11;80.76
37904;BME280;23738;50.422;18.758;2023-09-18T00:06:34;98633.39;;;17.11;80.72
37904;BME280;23738;50.422;18.758;2023-09-18T00:09:04;98634.44;;;17.08;80.59
37904;BME280;23738;50.422;18.758;2023-09-18T00:11:35;98631.38;;;17.04;80.62
37904;BME280;23738;50.422;18.758;2023-09-18T00:14:06;98627.89;;;16.99;80.58
37904;BME280;23738;50.422;18.758;2023-09-18T00:16:37;98628.17;;;16.95;80.58
37904;BME280;23738;50.422;18.758;2023-09-18T00:19:06;98629.33;;;16.91;80.55
37904;BME280;23738;50.422;18.758;2023-09-18T00:21:37;98629.96;;;16.88;80.83
37904;BME280;23738;50.422;18.758;2023-09-18T00:24:07;98629.50;;;16.92;81.22
37904;BME280;23738;50.422;18.758;2023-09-18T00:26:36;98625.58;;;16.94;81.01
37904;BME280;23738;50.422;18.758;2023-09-18T00:29:06;98627.20;;;16.89;81.05
37904;BME280;23738;50.422;18.758;2023-09-18T00:31:35;98630.49;;;16.86;81.04
37904;BME280;23738;50.422;18.758;2023-09-18T00:34:04;98631.23;;;16.86;81.19
37904;BME280;23738;50.422;18.758;2023-09-18T00:36:34;98630.85;;;16.85;81.32
37904;BME280;23738;50.422;18.758;2023-09-18T00:39:03;98630.75;;;16.86;81.39
37904;BME280;23738;50.422;18.758;2023-09-18T00:41:33;98631.48;;;16.80;81.44
37904;BME280;23738;50.422;18.758;2023-09-18T00:44:02;98628.78;;;16.77;81.36
37904;BME280;23738;50.422;18.758;2023-09-18T00:46:33;98631.21;;;16.73;81.23
37904;BME280;23738;50.422;18.758;2023-09-18T00:49:03;98632.59;;;16.72;81.69
37904;BME280;23738;50.422;18.758;2023-09-18T00:51:33;98630.20;;;16.73;81.57
37904;BME280;23738;50.422;18.758;2023-09-18T00:54:03;98626.67;;;16.73;81.67
37904;BME280;23738;50.422;18.758;2023-09-18T00:56:33;98623.01;;;16.69;81.77
37904;BME280;23738;50.422;18.758;2023-09-18T00:59:04;98624.05;;;16.67;81.75
37904;BME280;23738;50.422;18.758;2023-09-18T01:01:52;98620.90;;;16.64;81.77
37904;BME280;23738;50.422;18.758;2023-09-18T01:05:02;98618.72;;;16.62;81.81
37904;BME280;23738;50.422;18.758;2023-09-18T01:07:52;98616.56;;;16.63;81.82
37904;BME280;23738;50.422;18.758;2023-09-18T01:10:47;98617.43;;;16.67;82.09
37904;BME280;23738;50.422;18.758;2023-09-18T01:13:44;98607.95;;;16.71;82.29
37904;BME280;23738;50.422;18.758;2023-09-18T01:16:37;98610.14;;;16.73;82.54
37904;BME280;23738;50.422;18.758;2023-09-18T01:19:39;98612.55;;;16.69;82.45
37904;BME280;23738;50.422;18.758;2023-09-18T01:22:33;98612.60;;;16.68;82.37
37904;BME280;23738;50.422;18.758;2023-09-18T01:25:46;98615.02;;;16.70;82.71
37904;BME280;23738;50.422;18.758;2023-09-18T01:28:35;98620.00;;;16.75;82.98
37904;BME280;23738;50.422;18.758;2023-09-18T01:31:28;98619.24;;;16.80;83.06
37904;BME280;23738;50.422;18.758;2023-09-18T01:34:36;98619.59;;;16.84;83.07
37904;BME280;23738;50.422;18.758;2023-09-18T01:37:28;98616.55;;;16.85;83.23
37904;BME280;23738;50.422;18.758;2023-09-18T01:40:27;98615.52;;;16.88;83.05
37904;BME280;23738;50.422;18.758;2023-09-18T01:42:58;98616.23;;;16.88;83.17
37904;BME280;23738;50.422;18.758;2023-09-18T01:45:36;98617.14;;;16.85;83.25
37904;BME280;23738;50.422;18.758;2023-09-18T01:48:27;98613.88;;;16.84;83.26
37904;BME280;23738;50.422;18.758;2023-09-18T01:50:57;98614.56;;;16.78;83.33
37904;BME280;23738;50.422;18.758;2023-09-18T01:53:55;98613.64;;;16.82;83.48
37904;BME280;23738;50.422;18.758;2023-09-18T01:56:49;98615.39;;;16.85;83.42
37904;BME280;23738;50.422;18.758;2023-09-18T02:00:00;98616.67;;;16.82;83.35
37904;BME280;23738;50.422;18.758;2023-09-18T02:02:50;98611.44;;;16.81;83.41
37904;BME280;23738;50.422;18.758;2023-09-18T02:05:27;98609.85;;;16.82;83.54
37904;BME280;23738;50.422;18.758;2023-09-18T02:08:05;98610.48;;;16.79;83.45
37904;BME280;23738;50.422;18.758;2023-09-18T02:10:54;98613.88;;;16.76;83.36
37904;BME280;23738;50.422;18.758;2023-09-18T02:14:03;98616.61;;;16.71;83.15
37904;BME280;23738;50.422;18.758;2023-09-18T02:16:54;98615.35;;;16.66;83.40
37904;BME280;23738;50.422;18.758;2023-09-18T02:19:44;98607.42;;;16.63;83.33
37904;BME280;23738;50.422;18.758;2023-09-18T02:22:54;98604.81;;;16.56;83.32
37904;BME280;23738;50.422;18.758;2023-09-18T02:25:56;98600.52;;;16.58;83.37
37904;BME280;23738;50.422;18.758;2023-09-18T02:28:47;98601.20;;;16.57;83.66
37904;BME280;23738;50.422;18.758;2023-09-18T02:31:37;98596.61;;;16.61;83.87
37904;BME280;23738;50.422;18.758;2023-09-18T02:34:15;98593.57;;;16.61;84.01
37904;BME280;23738;50.422;18.758;2023-09-18T02:37:22;98592.16;;;16.63;84.13
37904;BME280;23738;50.422;18.758;2023-09-18T02:40:00;98589.00;;;16.62;84.05
37904;BME280;23738;50.422;18.758;2023-09-18T02:42:38;98586.48;;;16.66;84.33
37904;BME280;23738;50.422;18.758;2023-09-18T02:45:15;98589.13;;;16.67;84.28
37904;BME280;23738;50.422;18.758;2023-09-18T02:48:04;98589.77;;;16.67;84.37
37904;BME280;23738;50.422;18.758;2023-09-18T02:51:14;98585.83;;;16.68;84.61
37904;BME280;23738;50.422;18.758;2023-09-18T02:54:08;98582.74;;;16.69;84.53
37904;BME280;23738;50.422;18.758;2023-09-18T02:56:57;98582.09;;;16.69;84.64
37904;BME280;23738;50.422;18.758;2023-09-18T03:00:10;98581.17;;;16.70;84.48
37904;BME280;23738;50.422;18.758;2023-09-18T03:03:12;98581.88;;;16.71;84.62
37904;BME280;23738;50.422;18.758;2023-09-18T03:06:09;98577.71;;;16.73;84.79
37904;BME280;23738;50.422;18.758;2023-09-18T03:09:07;98576.65;;;16.71;84.76
37904;BME280;23738;50.422;18.758;2023-09-18T03:12:15;98571.61;;;16.70;84.67
37904;BME280;23738;50.422;18.758;2023-09-18T03:14:45;98567.89;;;16.68;84.81
37904;BME280;23738;50.422;18.758;2023-09-18T03:17:23;98565.84;;;16.66;84.68
37904;BME280;23738;50.422;18.758;2023-09-18T03:20:34;98562.83;;;16.65;84.81
37904;BME280;23738;50.422;18.758;2023-09-18T03:23:48;98559.05;;;16.65;85.03
37904;BME280;23738;50.422;18.758;2023-09-18T03:26:38;98559.58;;;16.65;85.08
37904;BME280;23738;50.422;18.758;2023-09-18T03:29:27;98559.63;;;16.62;85.01
37904;BME280;23738;50.422;18.758;2023-09-18T03:32:25;98560.17;;;16.61;85.00
37904;BME280;23738;50.422;18.758;2023-09-18T03:35:48;98557.14;;;16.61;85.10
37904;BME280;23738;50.422;18.758;2023-09-18T03:38:26;98556.19;;;16.62;85.27
37904;BME280;23738;50.422;18.758;2023-09-18T03:41:15;98556.10;;;16.65;85.40
37904;BME280;23738;50.422;18.758;2023-09-18T03:44:04;98554.31;;;16.67;85.55
37904;BME280;23738;50.422;18.758;2023-09-18T03:46:53;98553.56;;;16.66;85.32
37904;BME280;23738;50.422;18.758;2023-09-18T03:49:31;98552.77;;;16.63;85.31
37904;BME280;23738;50.422;18.758;2023-09-18T03:52:29;98548.27;;;16.63;85.34
37904;BME280;23738;50.422;18.758;2023-09-18T03:55:31;98548.52;;;16.62;85.48
37904;BME280;23738;50.422;18.758;2023-09-18T03:57:59;98545.64;;;16.64;85.62
37904;BME280;23738;50.422;18.758;2023-09-18T04:01:09;98543.64;;;16.61;85.37
37904;BME280;23738;50.422;18.758;2023-09-18T04:04:02;98545.92;;;16.58;85.45
37904;BME280;23738;50.422;18.758;2023-09-18T04:07:15;98543.81;;;16.54;85.14
37904;BME280;23738;50.422;18.758;2023-09-18T04:09:53;98545.09;;;16.51;85.37
37904;BME280;23738;50.422;18.758;2023-09-18T04:12:22;98543.55;;;16.49;85.37
37904;BME280;23738;50.422;18.758;2023-09-18T04:15:29;98543.23;;;16.46;85.50
37904;BME280;23738;50.422;18.758;2023-09-18T04:18:03;98542.14;;;16.45;85.60
37904;BME280;23738;50.422;18.758;2023-09-18T04:21:01;98534.46;;;16.45;85.51
37904;BME280;23738;50.422;18.758;2023-09-18T04:24:29;98528.42;;;16.41;85.35
37904;BME280;23738;50.422;18.758;2023-09-18T04:27:18;98531.39;;;16.43;85.66
37904;BME280;23738;50.422;18.758;2023-09-18T04:29:52;98526.72;;;16.42;85.66
37904;BME280;23738;50.422;18.758;2023-09-18T04:32:22;98530.34;;;16.39;85.69
37904;BME280;23738;50.422;18.758;2023-09-18T04:34:53;98528.33;;;16.40;85.79
37904;BME280;23738;50.422;18.758;2023-09-18T04:37:55;98523.79;;;16.39;85.88
37904;BME280;23738;50.422;18.758;2023-09-18T04:41:00;98522.29;;;16.44;85.96
37904;BME280;23738;50.422;18.758;2023-09-18T04:43:29;98522.60;;;16.43;85.95
37904;BME280;23738;50.422;18.758;2023-09-18T04:46:20;98518.35;;;16.44;86.09
37904;BME280;23738;50.422;18.758;2023-09-18T04:49:11;98515.35;;;16.44;86.08
37904;BME280;23738;50.422;18.758;2023-09-18T04:51:43;98511.98;;;16.43;86.04
37904;BME280;23738;50.422;18.758;2023-09-18T04:54:32;98512.16;;;16.45;86.29
37904;BME280;23738;50.422;18.758;2023-09-18T04:57:32;98508.88;;;16.48;86.17
37904;BME280;23738;50.422;18.758;2023-09-18T05:00:22;98512.20;;;16.52;86.46
37904;BME280;23738;50.422;18.758;2023-09-18T05:03:16;98507.59;;;16.54;86.39
37904;BME280;23738;50.422;18.758;2023-09-18T05:06:25;98509.36;;;16.54;86.53
37904;BME280;23738;50.422;18.758;2023-09-18T05:09:14;98510.83;;;16.56;86.53
37904;BME280;23738;50.422;18.758;2023-09-18T05:12:23;98512.88;;;16.61;86.92
37904;BME280;23738;50.422;18.758;2023-09-18T05:15:13;98512.23;;;16.69;86.94
37904;BME280;23738;50.422;18.758;2023-09-18T05:18:04;98507.73;;;16.77;86.96
37904;BME280;23738;50.422;18.758;2023-09-18T05:20:40;98503.73;;;16.83;87.14
37904;BME280;23738;50.422;18.758;2023-09-18T05:23:39;98499.98;;;16.91;87.44
37904;BME280;23738;50.422;18.758;2023-09-18T05:26:28;98500.14;;;17.00;87.16
37904;BME280;23738;50.422;18.758;2023-09-18T05:29:31;98496.38;;;17.15;87.33
37904;BME280;23738;50.422;18.758;2023-09-18T05:32:09;98493.83;;;17.29;87.51
37904;BME280;23738;50.422;18.758;2023-09-18T05:35:18;98485.56;;;17.44;87.44
37904;BME280;23738;50.422;18.758;2023-09-18T05:38:09;98487.38;;;17.55;87.48
37904;BME280;23738;50.422;18.758;2023-09-18T05:40:59;98486.21;;;17.66;87.38
37904;BME280;23738;50.422;18.758;2023-09-18T05:44:05;98485.73;;;17.73;87.32
37904;BME280;23738;50.422;18.758;2023-09-18T05:47:31;98485.36;;;17.85;87.32
37904;BME280;23738;50.422;18.758;2023-09-18T05:50:01;98479.42;;;17.96;87.37
37904;BME280;23738;50.422;18.758;2023-09-18T05:52:53;98473.20;;;18.07;87.33
37904;BME280;23738;50.422;18.758;2023-09-18T05:55:47;98467.45;;;18.18;87.27
37904;BME280;23738;50.422;18.758;2023-09-18T05:58:52;98465.30;;;18.31;87.08
37904;BME280;23738;50.422;18.758;2023-09-18T06:02:04;98462.10;;;18.42;87.05
37904;BME280;23738;50.422;18.758;2023-09-18T06:04:34;98466.27;;;18.56;87.07
37904;BME280;23738;50.422;18.758;2023-09-18T06:07:23;98472.95;;;18.69;87.00
37904;BME280;23738;50.422;18.758;2023-09-18T06:09:57;98466.30;;;18.85;86.87
37904;BME280;23738;50.422;18.758;2023-09-18T06:12:37;98461.45;;;19.00;86.92
37904;BME280;23738;50.422;18.758;2023-09-18T06:15:27;98464.00;;;19.18;86.71
37904;BME280;23738;50.422;18.758;2023-09-18T06:18:06;98459.30;;;19.35;86.56
37904;BME280;23738;50.422;18.758;2023-09-18T06:20:55;98452.19;;;19.49;86.21
37904;BME280;23738;50.422;18.758;2023-09-18T06:23:48;98458.19;;;19.65;86.14
37904;BME280;23738;50.422;18.758;2023-09-18T06:26:40;98461.20;;;19.76;85.81
37904;BME280;23738;50.422;18.758;2023-09-18T06:29:38;98459.52;;;19.84;85.75
37904;BME280;23738;50.422;18.758;2023-09-18T06:32:29;98451.87;;;20.01;85.59
37904;BME280;23738;50.422;18.758;2023-09-18T06:35:15;98453.55;;;20.19;85.38
37904;BME280;23738;50.422;18.758;2023-09-18T06:37:46;98454.53;;;20.34;85.02
37904;BME280;23738;50.422;18.758;2023-09-18T06:40:25;98455.80;;;20.44;84.43
37904;BME280;23738;50.422;18.758;2023-09-18T06:43:19;98456.91;;;20.58;84.54
37904;BME280;23738;50.422;18.758;2023-09-18T06:46:06;98455.00;;;20.74;84.46
37904;BME280;23738;50.422;18.758;2023-09-18T06:48:55;98458.77;;;20.90;84.23
37904;BME280;23738;50.422;18.758;2023-09-18T06:51:44;98455.77;;;21.09;83.97
37904;BME280;23738;50.422;18.758;2023-09-18T06:54:33;98453.21;;;21.24;83.30
37904;BME280;23738;50.422;18.758;2023-09-18T06:57:18;98454.06;;;21.34;82.83
37904;BME280;23738;50.422;18.758;2023-09-18T07:00:10;98454.48;;;21.42;82.67
37904;BME280;23738;50.422;18.758;2023-09-18T07:02:59;98450.42;;;21.54;82.76
37904;BME280;23738;50.422;18.758;2023-09-18T07:05:49;98450.83;;;21.67;82.38
37904;BME280;23738;50.422;18.758;2023-09-18T07:08:39;98452.11;;;21.87;82.07
37904;BME280;23738;50.422;18.758;2023-09-18T07:11:25;98449.54;;;22.06;81.54
37904;BME280;23738;50.422;18.758;2023-09-18T07:14:15;98451.62;;;22.23;81.41
37904;BME280;23738;50.422;18.758;2023-09-18T07:17:03;98454.42;;;22.44;81.31
37904;BME280;23738;50.422;18.758;2023-09-18T07:19:52;98459.59;;;22.62;80.83
37904;BME280;23738;50.422;18.758;2023-09-18T07:22:26;98456.77;;;22.75;80.48
37904;BME280;23738;50.422;18.758;2023-09-18T07:25:04;98456.49;;;22.85;79.84
37904;BME280;23738;50.422;18.758;2023-09-18T07:27:52;98447.41;;;22.96;80.01
37904;BME280;23738;50.422;18.758;2023-09-18T07:30:31;98449.48;;;23.14;79.35
37904;BME280;23738;50.422;18.758;2023-09-18T07:33:21;98445.44;;;23.26;78.27
37904;BME280;23738;50.422;18.758;2023-09-18T07:36:18;98440.59;;;23.42;77.81
37904;BME280;23738;50.422;18.758;2023-09-18T07:39:05;98439.45;;;23.56;77.61
37904;BME280;23738;50.422;18.758;2023-09-18T07:41:55;98437.32;;;23.68;76.35
37904;BME280;23738;50.422;18.758;2023-09-18T07:44:48;98441.88;;;23.81;76.71
37904;BME280;23738;50.422;18.758;2023-09-18T07:48:05;98442.27;;;23.98;76.19
37904;BME280;23738;50.422;18.758;2023-09-18T07:50:55;98435.92;;;24.13;75.88
37904;BME280;23738;50.422;18.758;2023-09-18T07:54:25;98435.14;;;24.34;75.67
37904;BME280;23738;50.422;18.758;2023-09-18T07:57:17;98430.89;;;24.49;75.13
37904;BME280;23738;50.422;18.758;2023-09-18T08:00:31;98427.96;;;24.67;74.44
37904;BME280;23738;50.422;18.758;2023-09-18T08:03:21;98432.36;;;24.80;74.24
37904;BME280;23738;50.422;18.758;2023-09-18T08:06:27;98426.23;;;24.96;73.66
37904;BME280;23738;50.422;18.758;2023-09-18T08:09:38;98428.58;;;25.08;72.58
37904;BME280;23738;50.422;18.758;2023-09-18T08:12:37;98425.16;;;25.16;72.23
37904;BME280;23738;50.422;18.758;2023-09-18T08:15:44;98424.64;;;25.29;71.09
37904;BME280;23738;50.422;18.758;2023-09-18T08:18:33;98421.59;;;25.34;69.98
37904;BME280;23738;50.422;18.758;2023-09-18T08:21:46;98425.45;;;25.41;69.82
37904;BME280;23738;50.422;18.758;2023-09-18T08:24:38;98426.10;;;25.50;69.20
37904;BME280;23738;50.422;18.758;2023-09-18T08:27:25;98420.96;;;25.60;69.07
37904;BME280;23738;50.422;18.758;2023-09-18T08:30:14;98422.30;;;25.75;68.75
37904;BME280;23738;50.422;18.758;2023-09-18T08:33:05;98415.62;;;25.92;68.63
37904;BME280;23738;50.422;18.758;2023-09-18T08:36:15;98410.08;;;26.12;67.29
37904;BME280;23738;50.422;18.758;2023-09-18T08:39:12;98406.39;;;26.25;67.00
37904;BME280;23738;50.422;18.758;2023-09-18T08:42:05;98407.08;;;26.32;65.77
37904;BME280;23738;50.422;18.758;2023-09-18T08:44:35;98403.61;;;26.34;64.75
37904;BME280;23738;50.422;18.758;2023-09-18T08:47:04;98404.55;;;26.38;65.60
37904;BME280;23738;50.422;18.758;2023-09-18T08:49:34;98403.22;;;26.44;64.96
37904;BME280;23738;50.422;18.758;2023-09-18T08:52:12;98403.85;;;26.50;63.44
37904;BME280;23738;50.422;18.758;2023-09-18T08:54:58;98402.88;;;26.56;64.67
37904;BME280;23738;50.422;18.758;2023-09-18T08:57:27;98403.89;;;26.66;64.65
37904;BME280;23738;50.422;18.758;2023-09-18T09:00:19;98401.73;;;26.80;65.06
37904;BME280;23738;50.422;18.758;2023-09-18T09:02:47;98400.11;;;27.01;64.95
37904;BME280;23738;50.422;18.758;2023-09-18T09:05:55;98397.41;;;27.09;62.97
37904;BME280;23738;50.422;18.758;2023-09-18T09:09:03;98393.50;;;27.11;63.68
37904;BME280;23738;50.422;18.758;2023-09-18T09:12:01;98388.37;;;27.23;63.76
37904;BME280;23738;50.422;18.758;2023-09-18T09:15:00;98386.55;;;27.28;63.20
37904;BME280;23738;50.422;18.758;2023-09-18T09:17:48;98383.10;;;27.33;62.94
37904;BME280;23738;50.422;18.758;2023-09-18T09:20:36;98382.65;;;27.40;62.91
37904;BME280;23738;50.422;18.758;2023-09-18T09:23:24;98374.00;;;27.47;62.63
37904;BME280;23738;50.422;18.758;2023-09-18T09:26:29;98370.84;;;27.60;63.04
37904;BME280;23738;50.422;18.758;2023-09-18T09:29:17;98367.23;;;27.68;62.70
37904;BME280;23738;50.422;18.758;2023-09-18T09:32:16;98357.66;;;27.75;61.99
37904;BME280;23738;50.422;18.758;2023-09-18T09:34:45;98361.20;;;27.78;61.90
37904;BME280;23738;50.422;18.758;2023-09-18T09:37:23;98358.66;;;27.85;61.09
37904;BME280;23738;50.422;18.758;2023-09-18T09:39:57;98361.90;;;27.93;60.90
37904;BME280;23738;50.422;18.758;2023-09-18T09:42:39;98364.28;;;28.06;61.10
37904;BME280;23738;50.422;18.758;2023-09-18T09:45:15;98354.70;;;28.15;61.05
37904;BME280;23738;50.422;18.758;2023-09-18T09:47:47;98355.23;;;28.25;60.47
37904;BME280;23738;50.422;18.758;2023-09-18T09:50:23;98350.41;;;28.36;60.02
37904;BME280;23738;50.422;18.758;2023-09-18T09:52:55;98349.92;;;28.44;60.50
37904;BME280;23738;50.422;18.758;2023-09-18T09:56:03;98347.85;;;28.46;59.75
37904;BME280;23738;50.422;18.758;2023-09-18T09:59:02;98349.67;;;28.49;59.83
37904;BME280;23738;50.422;18.758;2023-09-18T10:01:51;98348.04;;;28.52;57.99
37904;BME280;23738;50.422;18.758;2023-09-18T10:04:35;98348.48;;;28.61;59.42
37904;BME280;23738;50.422;18.758;2023-09-18T10:07:22;98343.39;;;28.74;58.73
37904;BME280;23738;50.422;18.758;2023-09-18T10:10:07;98338.45;;;28.81;58.63
37904;BME280;23738;50.422;18.758;2023-09-18T10:12:55;98335.77;;;28.87;58.74
37904;BME280;23738;50.422;18.758;2023-09-18T10:15:34;98333.54;;;28.90;58.33
37904;BME280;23738;50.422;18.758;2023-09-18T10:18:20;98333.60;;;28.95;58.55
37904;BME280;23738;50.422;18.758;2023-09-18T10:21:00;98332.11;;;29.04;57.88
37904;BME280;23738;50.422;18.758;2023-09-18T10:24:10;98335.17;;;29.16;57.88
37904;BME280;23738;50.422;18.758;2023-09-18T10:26:48;98332.88;;;29.22;57.63
37904;BME280;23738;50.422;18.758;2023-09-18T10:29:27;98336.80;;;29.19;57.00
37904;BME280;23738;50.422;18.758;2023-09-18T10:31:56;98335.13;;;29.20;57.30
37904;BME280;23738;50.422;18.758;2023-09-18T10:35:05;98331.47;;;29.30;56.69
37904;BME280;23738;50.422;18.758;2023-09-18T10:38:13;98329.38;;;29.42;56.58
37904;BME280;23738;50.422;18.758;2023-09-18T10:41:05;98323.39;;;29.41;56.48
37904;BME280;23738;50.422;18.758;2023-09-18T10:44:01;98325.02;;;29.42;55.90
37904;BME280;23738;50.422;18.758;2023-09-18T10:46:30;98317.83;;;29.38;55.96
37904;BME280;23738;50.422;18.758;2023-09-18T10:49:38;98317.34;;;29.32;55.37
37904;BME280;23738;50.422;18.758;2023-09-18T10:52:27;98320.33;;;29.27;55.06
37904;BME280;23738;50.422;18.758;2023-09-18T10:55:35;98309.86;;;29.18;54.36
37904;BME280;23738;50.422;18.758;2023-09-18T10:58:24;98302.59;;;29.19;54.65
37904;BME280;23738;50.422;18.758;2023-09-18T11:01:32;98297.16;;;29.32;54.76
37904;BME280;23738;50.422;18.758;2023-09-18T11:04:20;98297.90;;;29.37;53.63
37904;BME280;23738;50.422;18.758;2023-09-18T11:07:27;98296.95;;;29.42;53.85
37904;BME280;23738;50.422;18.758;2023-09-18T11:10:26;98293.17;;;29.35;53.31
37904;BME280;23738;50.422;18.758;2023-09-18T11:13:14;98299.84;;;29.36;51.91
37904;BME280;23738;50.422;18.758;2023-09-18T11:16:35;98301.64;;;29.35;52.38
37904;BME280;23738;50.422;18.758;2023-09-18T11:19:12;98295.05;;;29.36;50.99
37904;BME280;23738;50.422;18.758;2023-09-18T11:22:19;98293.95;;;29.32;51.70
37904;BME280;23738;50.422;18.758;2023-09-18T11:27:55;98285.78;;;29.39;51.17
37904;BME280;23738;50.422;18.758;2023-09-18T11:30:28;98282.77;;;29.43;52.17
37904;BME280;23738;50.422;18.758;2023-09-18T11:33:36;98281.92;;;29.51;51.75
37904;BME280;23738;50.422;18.758;2023-09-18T11:36:41;98276.20;;;29.58;51.72
37904;BME280;23738;50.422;18.758;2023-09-18T11:39:49;98274.52;;;29.71;51.92
37904;BME280;23738;50.422;18.758;2023-09-18T11:42:37;98272.60;;;29.78;51.77
37904;BME280;23738;50.422;18.758;2023-09-18T11:45:24;98272.73;;;29.78;50.61
37904;BME280;23738;50.422;18.758;2023-09-18T11:48:32;98269.80;;;29.74;51.36
37904;BME280;23738;50.422;18.758;2023-09-18T11:51:59;98267.37;;;29.73;51.12
37904;BME280;23738;50.422;18.758;2023-09-18T11:55:07;98263.35;;;29.70;51.59
37904;BME280;23738;50.422;18.758;2023-09-18T11:57:55;98265.29;;;29.67;50.56
37904;BME280;23738;50.422;18.758;2023-09-18T12:01:02;98262.42;;;29.55;49.89
37904;BME280;23738;50.422;18.758;2023-09-18T12:04:10;98251.35;;;29.47;50.63
37904;BME280;23738;50.422;18.758;2023-09-18T12:06:59;98254.55;;;29.45;50.16
37904;BME280;23738;50.422;18.758;2023-09-18T12:10:08;98247.16;;;29.45;50.38
37904;BME280;23738;50.422;18.758;2023-09-18T12:12:50;98243.23;;;29.50;50.28
37904;BME280;23738;50.422;18.758;2023-09-18T12:15:58;98236.77;;;29.48;50.17
37904;BME280;23738;50.422;18.758;2023-09-18T12:18:53;98235.29;;;29.43;49.93
37904;BME280;23738;50.422;18.758;2023-09-18T12:22:01;98226.74;;;29.22;50.27
37904;BME280;23738;50.422;18.758;2023-09-18T12:24:49;98221.80;;;29.08;50.25
37904;BME280;23738;50.422;18.758;2023-09-18T12:27:37;98218.05;;;29.03;49.99
37904;BME280;23738;50.422;18.758;2023-09-18T12:30:44;98217.11;;;29.05;50.23
37904;BME280;23738;50.422;18.758;2023-09-18T12:33:34;98212.61;;;29.07;49.92
37904;BME280;23738;50.422;18.758;2023-09-18T12:36:43;98206.61;;;29.17;50.35
37904;BME280;23738;50.422;18.758;2023-09-18T12:39:32;98207.14;;;29.24;49.91
37904;BME280;23738;50.422;18.758;2023-09-18T12:42:38;98198.73;;;29.25;49.67
37904;BME280;23738;50.422;18.758;2023-09-18T12:45:24;98201.76;;;29.32;49.95
37904;BME280;23738;50.422;18.758;2023-09-18T12:48:30;98205.23;;;29.43;50.15
37904;BME280;23738;50.422;18.758;2023-09-18T12:51:38;98207.81;;;29.51;49.93
37904;BME280;23738;50.422;18.758;2023-09-18T12:54:41;98203.05;;;29.52;49.52
37904;BME280;23738;50.422;18.758;2023-09-18T12:57:32;98199.48;;;29.52;49.70
37904;BME280;23738;50.422;18.758;2023-09-18T13:00:43;98194.83;;;29.53;49.71
37904;BME280;23738;50.422;18.758;2023-09-18T13:03:47;98194.67;;;29.57;49.20
37904;BME280;23738;50.422;18.758;2023-09-18T13:07:07;98199.54;;;29.56;49.08
37904;BME280;23738;50.422;18.758;2023-09-18T13:10:01;98193.20;;;29.55;49.31
37904;BME280;23738;50.422;18.758;2023-09-18T13:12:49;98191.18;;;29.57;49.28
37904;BME280;23738;50.422;18.758;2023-09-18T13:15:36;98191.97;;;29.59;49.41
37904;BME280;23738;50.422;18.758;2023-09-18T13:18:43;98192.97;;;29.59;49.23
37904;BME280;23738;50.422;18.758;2023-09-18T13:21:51;98184.77;;;29.51;48.72
37904;BME280;23738;50.422;18.758;2023-09-18T13:24:59;98197.54;;;29.42;48.63
37904;BME280;23738;50.422;18.758;2023-09-18T13:28:07;98187.70;;;29.28;48.45
37904;BME280;23738;50.422;18.758;2023-09-18T13:31:02;98173.35;;;29.20;48.57
37904;BME280;23738;50.422;18.758;2023-09-18T13:34:10;98170.65;;;29.15;48.65
37904;BME280;23738;50.422;18.758;2023-09-18T13:37:13;98169.59;;;29.08;48.26
37904;BME280;23738;50.422;18.758;2023-09-18T13:40:21;98169.61;;;28.92;48.71
37904;BME280;23738;50.422;18.758;2023-09-18T13:43:11;98163.31;;;28.79;48.63
37904;BME280;23738;50.422;18.758;2023-09-18T13:45:48;98161.30;;;28.70;48.67
37904;BME280;23738;50.422;18.758;2023-09-18T13:48:56;98161.18;;;28.63;48.74
37904;BME280;23738;50.422;18.758;2023-09-18T13:52:01;98156.07;;;28.58;48.21
37904;BME280;23738;50.422;18.758;2023-09-18T13:55:09;98148.49;;;28.51;48.53
37904;BME280;23738;50.422;18.758;2023-09-18T13:58:14;98140.52;;;28.45;48.65
37904;BME280;23738;50.422;18.758;2023-09-18T14:00:59;98141.39;;;28.37;48.65
37904;BME280;23738;50.422;18.758;2023-09-18T14:03:26;98137.51;;;28.34;48.78
37904;BME280;23738;50.422;18.758;2023-09-18T14:06:34;98133.27;;;28.27;48.93
37904;BME280;23738;50.422;18.758;2023-09-18T14:09:42;98132.22;;;28.26;48.82
37904;BME280;23738;50.422;18.758;2023-09-18T14:12:30;98131.27;;;28.20;49.00
37904;BME280;23738;50.422;18.758;2023-09-18T14:15:18;98126.08;;;28.16;48.83
37904;BME280;23738;50.422;18.758;2023-09-18T14:17:55;98126.95;;;28.12;48.80
37904;BME280;23738;50.422;18.758;2023-09-18T14:20:40;98120.36;;;28.05;48.73
37904;BME280;23738;50.422;18.758;2023-09-18T14:23:47;98121.46;;;27.96;48.77
37904;BME280;23738;50.422;18.758;2023-09-18T14:26:36;98118.88;;;27.86;48.49
37904;BME280;23738;50.422;18.758;2023-09-18T14:29:12;98118.63;;;27.77;48.55
37904;BME280;23738;50.422;18.758;2023-09-18T14:31:42;98120.36;;;27.69;48.38
37904;BME280;23738;50.422;18.758;2023-09-18T14:34:46;98117.12;;;27.60;48.74
37904;BME280;23738;50.422;18.758;2023-09-18T14:37:55;98111.98;;;27.50;48.67
37904;BME280;23738;50.422;18.758;2023-09-18T14:41:02;98113.20;;;27.37;48.83
37904;BME280;23738;50.422;18.758;2023-09-18T14:43:39;98114.49;;;27.29;48.83
37904;BME280;23738;50.422;18.758;2023-09-18T14:46:15;98108.34;;;27.21;49.02
37904;BME280;23738;50.422;18.758;2023-09-18T14:49:00;98106.98;;;27.12;48.94
37904;BME280;23738;50.422;18.758;2023-09-18T14:51:36;98101.34;;;27.04;48.96
37904;BME280;23738;50.422;18.758;2023-09-18T14:54:16;98097.42;;;26.94;49.01
37904;BME280;23738;50.422;18.758;2023-09-18T14:57:24;98099.93;;;26.86;49.14